createdAt,value
2022-12-29T00:01:02.272Z,8.55
2022-12-29T00:02:04.621Z,8.56
2022-12-29T00:03:06.865Z,8.58
2022-12-29T00:04:15.284Z,8.59
2022-12-29T00:05:17.819Z,8.60
2022-12-29T00:06:20.105Z,8.61
2022-12-29T00:07:22.384Z,8.63
2022-12-29T00:08:40.599Z,8.64
2022-12-29T00:09:43.230Z,8.65
2022-12-29T00:10:45.464Z,8.67
2022-12-29T00:11:47.715Z,8.67
2022-12-29T00:13:19.432Z,8.67
2022-12-29T00:14:40.246Z,8.70
2022-12-29T00:15:42.426Z,8.71
2022-12-29T00:16:46.234Z,8.71
2022-12-29T00:17:48.396Z,8.74
2022-12-29T00:18:51.021Z,8.74
2022-12-29T00:20:12.127Z,8.75
2022-12-29T00:21:34.180Z,8.76
2022-12-29T00:22:54.787Z,8.78
2022-12-29T00:24:30.682Z,8.79
2022-12-29T00:25:51.440Z,8.81
2022-12-29T00:27:16.522Z,8.81
2022-12-29T00:28:38.995Z,8.81
2022-12-29T00:29:59.604Z,8.82
2022-12-29T00:31:20.892Z,8.86
2022-12-29T00:32:41.745Z,8.86
2022-12-29T00:34:02.635Z,8.89
2022-12-29T00:35:10.971Z,8.90
2022-12-29T00:36:16.672Z,8.91
2022-12-29T00:37:39.324Z,8.92
2022-12-29T00:39:04.841Z,8.94
2022-12-29T00:40:26.095Z,8.96
2022-12-29T00:41:47.169Z,8.97
2022-12-29T00:43:18.395Z,9.02
2022-12-29T00:44:20.677Z,9.03
2022-12-29T00:45:23.149Z,9.03
2022-12-29T00:46:25.354Z,9.04
2022-12-29T00:47:27.865Z,9.05
2022-12-29T00:48:48.927Z,9.07
2022-12-29T00:49:51.179Z,9.09
2022-12-29T00:50:57.280Z,9.10
2022-12-29T00:52:04.612Z,9.10
2022-12-29T00:53:06.757Z,9.10
2022-12-29T00:54:09.452Z,9.12
2022-12-29T00:55:11.734Z,9.13
2022-12-29T00:56:13.995Z,9.15
2022-12-29T00:57:16.332Z,9.15
2022-12-29T00:58:23.092Z,9.17
2022-12-29T00:59:26.113Z,9.19
2022-12-29T01:00:28.313Z,9.19
2022-12-29T01:01:32.391Z,9.20
2022-12-29T01:02:34.887Z,9.21
2022-12-29T01:03:40.943Z,9.22
2022-12-29T01:04:43.090Z,9.23
2022-12-29T01:05:45.369Z,9.25
2022-12-29T01:06:49.280Z,9.25
2022-12-29T01:07:51.663Z,9.26
2022-12-29T01:09:15.844Z,9.27
2022-12-29T01:10:18.451Z,9.27
2022-12-29T01:11:21.643Z,9.26
2022-12-29T01:12:41.748Z,9.27
2022-12-29T01:13:45.807Z,9.28
2022-12-29T01:14:50.800Z,9.27
2022-12-29T01:15:54.205Z,9.27
2022-12-29T01:16:58.218Z,9.30
2022-12-29T01:18:00.455Z,9.30
2022-12-29T01:19:03.172Z,9.31
2022-12-29T01:20:05.960Z,9.32
2022-12-29T01:21:08.207Z,9.33
2022-12-29T01:22:10.353Z,9.33
2022-12-29T01:23:12.825Z,9.33
2022-12-29T01:24:17.715Z,9.33
2022-12-29T01:25:20.389Z,9.33
2022-12-29T01:26:22.850Z,9.34
2022-12-29T01:27:27.792Z,9.33
2022-12-29T01:28:29.941Z,9.33
2022-12-29T01:29:32.144Z,9.34
2022-12-29T01:30:34.387Z,9.34
2022-12-29T01:31:36.749Z,9.33
2022-12-29T01:32:39.196Z,9.35
2022-12-29T01:33:41.642Z,9.34
2022-12-29T01:34:43.852Z,9.34
2022-12-29T01:35:48.574Z,9.35
2022-12-29T01:36:50.800Z,9.35
2022-12-29T01:37:53.065Z,9.34
2022-12-29T01:38:55.990Z,9.35
2022-12-29T01:39:58.308Z,9.35
2022-12-29T01:41:00.819Z,9.36
2022-12-29T01:42:02.998Z,9.36
2022-12-29T01:43:08.866Z,9.35
2022-12-29T01:45:02.560Z,9.35
2022-12-29T01:46:04.831Z,9.36
2022-12-29T01:47:09.612Z,9.36
2022-12-29T01:48:14.527Z,9.36
2022-12-29T01:49:23.048Z,9.37
2022-12-29T01:50:33.360Z,9.36
2022-12-29T01:52:01.548Z,9.34
2022-12-29T01:53:10.360Z,9.35
2022-12-29T01:54:19.527Z,9.35
2022-12-29T01:55:22.454Z,9.35
2022-12-29T01:56:25.307Z,9.35
2022-12-29T01:57:32.518Z,9.35
2022-12-29T01:58:41.409Z,9.34
2022-12-29T02:00:10.836Z,9.33
2022-12-29T02:01:22.921Z,9.29
2022-12-29T02:02:26.441Z,9.30
2022-12-29T02:03:31.629Z,9.30
2022-12-29T02:04:41.508Z,9.30
2022-12-29T02:06:03.441Z,9.30
2022-12-29T02:07:12.647Z,9.30
2022-12-29T02:08:14.975Z,9.28
2022-12-29T02:09:17.309Z,9.27
2022-12-29T02:10:24.202Z,9.27
2022-12-29T02:11:29.993Z,9.28
2022-12-29T02:12:32.516Z,9.27
2022-12-29T02:13:34.858Z,9.27
2022-12-29T02:14:37.337Z,9.27
2022-12-29T02:16:03.985Z,9.27
2022-12-29T02:17:30.360Z,9.27
2022-12-29T02:18:52.502Z,9.27
2022-12-29T02:20:30.754Z,9.27
2022-12-29T02:21:41.646Z,9.26
2022-12-29T02:23:08.696Z,9.28
2022-12-29T02:24:44.350Z,9.28
2022-12-29T02:26:14.919Z,9.29
2022-12-29T02:27:59.920Z,9.28
2022-12-29T02:29:16.538Z,9.30
2022-12-29T02:30:19.441Z,9.29
2022-12-29T02:31:22.760Z,9.28
2022-12-29T02:32:49.926Z,9.30
2022-12-29T02:34:31.236Z,9.30
2022-12-29T02:35:47.177Z,9.31
2022-12-29T02:37:08.626Z,9.30
2022-12-29T02:38:50.592Z,9.31
2022-12-29T02:40:10.047Z,9.31
2022-12-29T02:41:31.148Z,9.32
2022-12-29T02:42:42.529Z,9.32
2022-12-29T02:44:05.700Z,9.34
2022-12-29T02:45:17.538Z,9.34
2022-12-29T02:46:33.795Z,9.34
2022-12-29T02:47:43.112Z,9.35
2022-12-29T02:49:28.874Z,9.35
2022-12-29T02:50:38.531Z,9.35
2022-12-29T02:51:58.289Z,9.36
2022-12-29T02:53:04.337Z,9.36
2022-12-29T02:54:25.139Z,9.37
2022-12-29T02:55:27.849Z,9.37
2022-12-29T02:56:30.103Z,9.37
2022-12-29T02:57:35.777Z,9.39
2022-12-29T02:58:38.779Z,9.38
2022-12-29T02:59:44.276Z,9.40
2022-12-29T03:01:14.109Z,9.39
2022-12-29T03:02:55.646Z,9.41
2022-12-29T03:04:36.277Z,9.42
2022-12-29T03:06:09.014Z,9.43
2022-12-29T03:07:23.365Z,9.45
2022-12-29T03:08:56.151Z,9.45
2022-12-29T03:10:00.895Z,9.45
2022-12-29T03:11:06.818Z,9.45
2022-12-29T03:12:19.750Z,9.46
2022-12-29T03:13:54.038Z,9.47
2022-12-29T03:15:23.431Z,9.49
2022-12-29T03:16:47.263Z,9.49
2022-12-29T03:18:18.970Z,9.50
2022-12-29T03:19:47.530Z,9.49
2022-12-29T03:20:55.988Z,9.51
2022-12-29T03:22:25.721Z,9.53
2022-12-29T03:23:39.757Z,9.53
2022-12-29T03:25:05.006Z,9.53
2022-12-29T03:26:12.651Z,9.53
2022-12-29T03:27:21.047Z,9.57
2022-12-29T03:28:28.714Z,9.57
2022-12-29T03:29:36.296Z,9.57
2022-12-29T03:30:41.080Z,9.58
2022-12-29T03:31:43.844Z,9.59
2022-12-29T03:33:16.604Z,9.60
2022-12-29T03:34:22.773Z,9.62
2022-12-29T03:35:28.903Z,9.62
2022-12-29T03:36:45.493Z,9.64
2022-12-29T03:38:00.482Z,9.65
2022-12-29T03:39:14.472Z,9.67
2022-12-29T03:40:17.689Z,9.68
2022-12-29T03:41:27.155Z,9.67
2022-12-29T03:42:36.383Z,9.69
2022-12-29T03:43:38.886Z,9.71
2022-12-29T03:44:44.124Z,9.73
2022-12-29T03:45:48.532Z,9.75
2022-12-29T03:46:51.281Z,9.75
2022-12-29T03:47:54.699Z,9.76
2022-12-29T03:48:57.735Z,9.78
2022-12-29T03:49:59.945Z,9.80
2022-12-29T03:51:02.268Z,9.82
2022-12-29T03:52:05.069Z,9.83
2022-12-29T03:53:11.121Z,9.85
2022-12-29T03:54:14.641Z,9.86
2022-12-29T03:55:16.944Z,9.89
2022-12-29T03:56:21.123Z,9.90
2022-12-29T03:57:25.250Z,9.91
2022-12-29T03:58:34.515Z,9.93
2022-12-29T03:59:44.597Z,9.94
2022-12-29T04:00:47.355Z,9.97
2022-12-29T04:01:49.689Z,9.98
2022-12-29T04:02:53.017Z,10.00
2022-12-29T04:04:15.625Z,10.01
2022-12-29T04:05:20.393Z,10.03
2022-12-29T04:06:24.764Z,10.06
2022-12-29T04:07:33.529Z,10.07
2022-12-29T04:08:38.226Z,10.08
2022-12-29T04:09:41.758Z,10.09
2022-12-29T04:10:46.535Z,10.11
2022-12-29T04:11:54.008Z,10.12
2022-12-29T04:12:57.252Z,10.13
2022-12-29T04:14:00.583Z,10.15
2022-12-29T04:15:04.098Z,10.16
2022-12-29T04:16:07.128Z,10.17
2022-12-29T04:17:10.214Z,10.17
2022-12-29T04:18:14.554Z,10.18
2022-12-29T04:19:16.878Z,10.19
2022-12-29T04:20:39.830Z,10.20
2022-12-29T04:21:43.234Z,10.22
2022-12-29T04:22:45.407Z,10.23
2022-12-29T04:23:48.675Z,10.26
2022-12-29T04:24:52.900Z,10.27
2022-12-29T04:25:55.505Z,10.28
2022-12-29T04:26:57.756Z,10.29
2022-12-29T04:28:26.281Z,10.29
2022-12-29T04:29:48.866Z,10.33
2022-12-29T04:31:11.523Z,10.34
2022-12-29T04:32:16.660Z,10.35
2022-12-29T04:33:25.359Z,10.35
2022-12-29T04:34:29.101Z,10.36
2022-12-29T04:35:31.347Z,10.36
2022-12-29T04:36:34.456Z,10.38
2022-12-29T04:37:36.936Z,10.40
2022-12-29T04:38:39.288Z,10.40
2022-12-29T04:39:41.591Z,10.41
2022-12-29T04:40:45.242Z,10.43
2022-12-29T04:41:48.154Z,10.44
2022-12-29T04:42:54.345Z,10.44
2022-12-29T04:43:57.625Z,10.45
2022-12-29T04:44:59.783Z,10.46
2022-12-29T04:46:27.936Z,10.48
2022-12-29T04:47:40.363Z,10.49
2022-12-29T04:49:05.659Z,10.49
2022-12-29T04:50:33.225Z,10.50
2022-12-29T04:51:58.241Z,10.53
2022-12-29T04:53:00.466Z,10.53
2022-12-29T04:54:02.680Z,10.55
2022-12-29T04:55:06.815Z,10.56
2022-12-29T04:56:10.250Z,10.56
2022-12-29T04:57:12.626Z,10.57
2022-12-29T04:58:22.252Z,10.58
2022-12-29T04:59:24.999Z,10.58
2022-12-29T05:00:31.072Z,10.58
2022-12-29T05:01:33.321Z,10.58
2022-12-29T05:02:37.676Z,10.58
2022-12-29T05:03:40.106Z,10.59
2022-12-29T05:04:42.482Z,10.59
2022-12-29T05:05:44.660Z,10.59
2022-12-29T05:06:47.477Z,10.59
2022-12-29T05:07:49.845Z,10.60
2022-12-29T05:08:52.425Z,10.59
2022-12-29T05:09:55.890Z,10.62
2022-12-29T05:10:58.457Z,10.60
2022-12-29T05:12:01.105Z,10.62
2022-12-29T05:13:03.373Z,10.64
2022-12-29T05:14:08.315Z,10.65
2022-12-29T05:15:12.136Z,10.62
2022-12-29T05:16:15.024Z,10.61
2022-12-29T05:17:19.557Z,10.63
2022-12-29T05:18:21.771Z,10.64
2022-12-29T05:19:24.992Z,10.62
2022-12-29T05:20:30.351Z,10.58
2022-12-29T05:21:33.268Z,10.61
2022-12-29T05:22:35.776Z,10.60
2022-12-29T05:23:38.943Z,10.61
2022-12-29T05:24:44.746Z,10.62
2022-12-29T05:25:47.017Z,10.61
2022-12-29T05:26:56.173Z,10.59
2022-12-29T05:28:09.533Z,10.61
2022-12-29T05:29:27.322Z,10.61
2022-12-29T05:30:29.585Z,10.60
2022-12-29T05:31:36.751Z,10.62
2022-12-29T05:32:40.560Z,10.60
2022-12-29T05:33:43.615Z,10.59
2022-12-29T05:34:45.904Z,10.61
2022-12-29T05:35:50.418Z,10.62
2022-12-29T05:36:53.606Z,10.64
2022-12-29T05:37:55.799Z,10.64
2022-12-29T05:38:58.174Z,10.65
2022-12-29T05:40:00.574Z,10.64
2022-12-29T05:41:04.188Z,10.65
2022-12-29T05:42:35.619Z,10.66
2022-12-29T05:44:16.176Z,10.67
2022-12-29T05:45:43.695Z,10.67
2022-12-29T05:47:03.193Z,10.68
2022-12-29T05:48:23.230Z,10.68
2022-12-29T05:50:04.283Z,10.68
2022-12-29T05:51:29.561Z,10.69
2022-12-29T05:52:34.601Z,10.68
2022-12-29T05:53:36.801Z,10.69
2022-12-29T05:54:39.018Z,10.68
2022-12-29T05:55:49.236Z,10.70
2022-12-29T05:56:52.455Z,10.70
2022-12-29T05:57:54.688Z,10.71
2022-12-29T05:58:56.904Z,10.71
2022-12-29T05:59:59.940Z,10.73
2022-12-29T06:01:02.315Z,10.72
2022-12-29T06:02:04.876Z,10.72
2022-12-29T06:03:07.673Z,10.74
2022-12-29T06:04:10.170Z,10.73
2022-12-29T06:05:12.530Z,10.73
2022-12-29T06:06:15.658Z,10.72
2022-12-29T06:07:21.261Z,10.74
2022-12-29T06:08:26.702Z,10.75
2022-12-29T06:09:36.610Z,10.75
2022-12-29T06:10:39.741Z,10.77
2022-12-29T06:11:42.484Z,10.77
2022-12-29T06:12:44.805Z,10.77
2022-12-29T06:13:47.138Z,10.79
2022-12-29T06:14:49.423Z,10.81
2022-12-29T06:15:52.083Z,10.81
2022-12-29T06:16:54.929Z,10.82
2022-12-29T06:17:58.055Z,10.82
2022-12-29T06:19:00.258Z,10.84
2022-12-29T06:20:02.833Z,10.84
2022-12-29T06:21:06.480Z,10.85
2022-12-29T06:22:09.443Z,10.84
2022-12-29T06:23:14.279Z,10.85
2022-12-29T06:24:16.447Z,10.86
2022-12-29T06:25:18.756Z,10.85
2022-12-29T06:26:21.047Z,10.85
2022-12-29T06:27:24.169Z,10.85
2022-12-29T06:28:28.383Z,10.86
2022-12-29T06:29:33.564Z,10.86
2022-12-29T06:30:35.801Z,10.85
2022-12-29T06:31:38.183Z,10.87
2022-12-29T06:32:43.689Z,10.88
2022-12-29T06:33:50.088Z,10.88
2022-12-29T06:34:52.818Z,10.88
2022-12-29T06:35:54.988Z,10.88
2022-12-29T06:36:57.195Z,10.87
2022-12-29T06:37:59.349Z,10.87
2022-12-29T06:39:01.653Z,10.88
2022-12-29T06:40:04.201Z,10.88
2022-12-29T06:41:18.015Z,10.86
2022-12-29T06:42:38.950Z,10.88
2022-12-29T06:44:08.260Z,10.88
2022-12-29T06:45:26.843Z,10.88
2022-12-29T06:46:29.088Z,10.89
2022-12-29T06:47:31.391Z,10.88
2022-12-29T06:48:33.760Z,10.88
2022-12-29T06:49:36.274Z,10.86
2022-12-29T06:50:38.469Z,10.88
2022-12-29T06:51:40.646Z,10.86
2022-12-29T06:52:42.925Z,10.86
2022-12-29T06:53:46.915Z,10.86
2022-12-29T06:54:49.088Z,10.87
2022-12-29T06:55:51.619Z,10.85
2022-12-29T06:56:53.819Z,10.84
2022-12-29T06:57:57.611Z,10.84
2022-12-29T06:59:02.112Z,10.83
2022-12-29T07:00:06.035Z,10.84
2022-12-29T07:01:08.300Z,10.82
2022-12-29T07:02:12.603Z,10.82
2022-12-29T07:03:15.137Z,10.82
2022-12-29T07:04:17.468Z,10.82
2022-12-29T07:05:19.722Z,10.81
2022-12-29T07:06:22.226Z,10.81
2022-12-29T07:07:24.483Z,10.80
2022-12-29T07:08:26.707Z,10.80
2022-12-29T07:09:38.151Z,10.79
2022-12-29T07:10:40.463Z,10.79
2022-12-29T07:11:42.714Z,10.77
2022-12-29T07:12:45.034Z,10.78
2022-12-29T07:13:50.980Z,10.77
2022-12-29T07:14:53.827Z,10.78
2022-12-29T07:15:56.016Z,10.77
2022-12-29T07:16:58.215Z,10.76
2022-12-29T07:18:00.400Z,10.77
2022-12-29T07:19:02.658Z,10.77
2022-12-29T07:20:10.962Z,10.76
2022-12-29T07:21:13.139Z,10.76
2022-12-29T07:22:15.319Z,10.75
2022-12-29T07:23:17.551Z,10.75
2022-12-29T07:24:19.765Z,10.74
2022-12-29T07:25:22.259Z,10.74
2022-12-29T07:26:24.520Z,10.75
2022-12-29T07:27:26.707Z,10.74
2022-12-29T07:28:29.149Z,10.73
2022-12-29T07:29:34.461Z,10.75
2022-12-29T07:30:38.557Z,10.73
2022-12-29T07:31:40.767Z,10.73
2022-12-29T07:32:45.268Z,10.73
2022-12-29T07:33:48.719Z,10.72
2022-12-29T07:34:51.039Z,10.70
2022-12-29T07:35:53.308Z,10.70
2022-12-29T07:36:58.624Z,10.68
2022-12-29T07:38:00.805Z,10.67
2022-12-29T07:39:04.410Z,10.67
2022-12-29T07:40:07.308Z,10.66
2022-12-29T07:41:10.120Z,10.67
2022-12-29T07:42:12.413Z,10.66
2022-12-29T07:43:18.497Z,10.66
2022-12-29T07:44:35.184Z,10.65
2022-12-29T07:45:55.239Z,10.67
2022-12-29T07:46:59.345Z,10.66
2022-12-29T07:48:03.636Z,10.67
2022-12-29T07:49:05.856Z,10.68
2022-12-29T07:50:08.210Z,10.67
2022-12-29T07:51:10.946Z,10.68
2022-12-29T07:52:13.190Z,10.70
2022-12-29T07:53:15.865Z,10.70
2022-12-29T07:54:24.400Z,10.72
2022-12-29T07:55:26.740Z,10.72
2022-12-29T07:56:29.052Z,10.74
2022-12-29T07:57:32.245Z,10.74
2022-12-29T07:58:34.817Z,10.75
2022-12-29T07:59:36.967Z,10.76
2022-12-29T08:00:39.834Z,10.77
2022-12-29T08:01:42.185Z,10.78
2022-12-29T08:04:00.582Z,10.80
2022-12-29T08:05:03.366Z,10.80
2022-12-29T08:06:05.807Z,10.80
2022-12-29T08:07:08.073Z,10.81
2022-12-29T08:08:10.239Z,10.83
2022-12-29T08:09:19.588Z,10.82
2022-12-29T08:10:24.990Z,10.84
2022-12-29T08:11:27.552Z,10.85
2022-12-29T08:12:29.755Z,10.85
2022-12-29T08:13:31.928Z,10.85
2022-12-29T08:14:34.088Z,10.85
2022-12-29T08:15:38.037Z,10.88
2022-12-29T08:16:40.286Z,10.88
2022-12-29T08:17:42.548Z,10.89
2022-12-29T08:18:45.446Z,10.89
2022-12-29T08:19:47.943Z,10.89
2022-12-29T08:20:55.615Z,10.90
2022-12-29T08:22:00.481Z,10.92
2022-12-29T08:23:02.727Z,10.92
2022-12-29T08:24:06.926Z,10.94
2022-12-29T08:25:09.442Z,10.94
2022-12-29T08:26:12.261Z,10.94
2022-12-29T08:27:20.719Z,10.96
2022-12-29T08:28:23.554Z,10.97
2022-12-29T08:29:26.175Z,10.98
2022-12-29T08:30:28.422Z,10.99
2022-12-29T08:31:30.788Z,10.99
2022-12-29T08:32:33.094Z,11.01
2022-12-29T08:33:35.289Z,11.02
2022-12-29T08:34:37.457Z,11.03
2022-12-29T08:35:39.636Z,11.05
2022-12-29T08:36:41.838Z,11.05
2022-12-29T08:37:44.067Z,11.06
2022-12-29T08:38:46.384Z,11.07
2022-12-29T08:39:48.842Z,11.08
2022-12-29T08:40:52.697Z,11.09
2022-12-29T08:41:54.918Z,11.09
2022-12-29T08:42:57.083Z,11.11
2022-12-29T08:43:59.314Z,11.09
2022-12-29T08:45:02.061Z,11.10
2022-12-29T08:46:04.473Z,11.10
2022-12-29T08:47:07.099Z,11.10
2022-12-29T08:48:09.389Z,11.11
2022-12-29T08:49:11.566Z,11.12
2022-12-29T08:50:16.840Z,11.13
2022-12-29T08:51:22.988Z,11.13
2022-12-29T08:52:26.834Z,11.13
2022-12-29T08:53:29.877Z,11.13
2022-12-29T08:54:32.958Z,11.14
2022-12-29T08:55:35.350Z,11.14
2022-12-29T08:56:37.492Z,11.14
2022-12-29T08:57:40.426Z,11.14
2022-12-29T08:58:51.876Z,11.14
2022-12-29T08:59:54.560Z,11.14
2022-12-29T09:00:58.018Z,11.13
2022-12-29T09:02:00.328Z,11.14
2022-12-29T09:03:02.848Z,11.13
2022-12-29T09:04:20.675Z,11.12
2022-12-29T09:05:23.018Z,11.12
2022-12-29T09:06:25.728Z,11.12
2022-12-29T09:07:28.301Z,11.12
2022-12-29T09:08:30.931Z,11.12
2022-12-29T09:09:36.067Z,11.12
2022-12-29T09:10:38.224Z,11.11
2022-12-29T09:11:40.459Z,11.11
2022-12-29T09:12:42.729Z,11.11
2022-12-29T09:13:45.643Z,11.12
2022-12-29T09:14:48.076Z,11.11
2022-12-29T09:15:59.532Z,11.14
2022-12-29T09:17:20.454Z,11.13
2022-12-29T09:18:22.631Z,11.14
2022-12-29T09:19:24.846Z,11.13
2022-12-29T09:20:27.094Z,11.13
2022-12-29T09:21:32.978Z,11.14
2022-12-29T09:22:35.341Z,11.15
2022-12-29T09:23:38.116Z,11.14
2022-12-29T09:24:40.311Z,11.15
2022-12-29T09:25:47.108Z,11.15
2022-12-29T09:26:49.336Z,11.13
2022-12-29T09:27:54.259Z,11.14
2022-12-29T09:28:56.432Z,11.15
2022-12-29T09:29:58.677Z,11.17
2022-12-29T09:31:01.575Z,11.18
2022-12-29T09:32:07.548Z,11.17
2022-12-29T09:33:10.082Z,11.18
2022-12-29T09:34:12.547Z,11.18
2022-12-29T09:35:16.326Z,11.21
2022-12-29T09:36:21.173Z,11.21
2022-12-29T09:37:23.391Z,11.23
2022-12-29T09:38:28.020Z,11.25
2022-12-29T09:39:30.173Z,11.26
2022-12-29T09:40:34.289Z,11.26
2022-12-29T09:41:58.483Z,11.29
2022-12-29T09:43:18.649Z,11.30
2022-12-29T09:44:23.689Z,11.33
2022-12-29T09:45:45.982Z,11.35
2022-12-29T09:46:54.662Z,11.40
2022-12-29T09:48:01.355Z,11.44
2022-12-29T09:49:29.957Z,11.47
2022-12-29T09:50:36.647Z,11.50
2022-12-29T09:51:41.296Z,11.54
2022-12-29T09:52:56.089Z,11.58
2022-12-29T09:54:01.416Z,11.63
2022-12-29T09:55:13.588Z,11.67
2022-12-29T09:56:23.174Z,11.73
2022-12-29T09:57:50.883Z,11.79
2022-12-29T09:58:55.667Z,11.86
2022-12-29T10:00:04.203Z,11.90
2022-12-29T10:01:36.705Z,12.00
2022-12-29T10:02:44.165Z,12.06
2022-12-29T10:03:54.173Z,12.11
2022-12-29T10:04:56.526Z,12.18
2022-12-29T10:06:09.805Z,12.25
2022-12-29T10:07:36.776Z,12.33
2022-12-29T10:08:45.752Z,12.43
2022-12-29T10:10:28.771Z,12.50
2022-12-29T10:11:48.008Z,12.58
2022-12-29T10:13:06.404Z,12.68
2022-12-29T10:14:51.801Z,12.76
2022-12-29T10:16:09.347Z,12.86
2022-12-29T10:17:48.939Z,12.93
2022-12-29T10:19:15.599Z,13.03
2022-12-29T10:20:37.366Z,13.11
2022-12-29T10:22:03.868Z,13.18
2022-12-29T10:23:40.239Z,13.28
2022-12-29T10:24:46.879Z,13.34
2022-12-29T10:25:49.705Z,13.38
2022-12-29T10:26:53.120Z,13.44
2022-12-29T10:27:59.787Z,13.50
2022-12-29T10:29:07.864Z,13.57
2022-12-29T10:30:13.644Z,13.62
2022-12-29T10:31:25.538Z,13.69
2022-12-29T10:32:34.993Z,13.75
2022-12-29T10:33:43.856Z,13.80
2022-12-29T10:34:51.186Z,13.86
2022-12-29T10:35:53.445Z,13.92
2022-12-29T10:37:02.139Z,13.96
2022-12-29T10:38:39.993Z,14.03
2022-12-29T10:39:50.446Z,14.07
2022-12-29T10:41:04.483Z,14.10
2022-12-29T10:42:46.157Z,14.13
2022-12-29T10:43:52.551Z,14.15
2022-12-29T10:44:57.141Z,14.16
2022-12-29T10:46:05.984Z,14.16
2022-12-29T10:47:38.873Z,14.16
2022-12-29T10:48:41.324Z,14.17
2022-12-29T10:49:47.558Z,14.15
2022-12-29T10:50:54.734Z,14.15
2022-12-29T10:52:03.666Z,14.12
2022-12-29T10:53:07.223Z,14.13
2022-12-29T10:54:34.693Z,14.12
2022-12-29T10:55:39.125Z,14.12
2022-12-29T10:56:46.664Z,14.11
2022-12-29T10:57:50.618Z,14.10
2022-12-29T10:58:56.665Z,14.09
2022-12-29T10:59:59.330Z,14.09
2022-12-29T11:01:01.680Z,14.10
2022-12-29T11:02:12.999Z,14.09
2022-12-29T11:03:36.951Z,14.09
2022-12-29T11:05:00.656Z,14.09
2022-12-29T11:06:11.133Z,14.09
2022-12-29T11:07:16.322Z,14.09
2022-12-29T11:08:25.683Z,14.10
2022-12-29T11:09:42.340Z,14.09
2022-12-29T11:10:47.259Z,14.09
2022-12-29T11:11:49.436Z,14.08
2022-12-29T11:12:58.290Z,14.08
2022-12-29T11:14:15.794Z,14.08
2022-12-29T11:15:18.091Z,14.07
2022-12-29T11:16:35.426Z,14.07
2022-12-29T11:17:49.647Z,14.06
2022-12-29T11:18:52.519Z,14.05
2022-12-29T11:19:54.695Z,14.05
2022-12-29T11:21:03.960Z,14.04
2022-12-29T11:22:29.707Z,14.02
2022-12-29T11:23:36.708Z,14.00
2022-12-29T11:24:45.817Z,13.97
2022-12-29T11:26:11.852Z,13.95
2022-12-29T11:27:23.992Z,13.94
2022-12-29T11:28:30.602Z,13.92
2022-12-29T11:29:42.345Z,13.91
2022-12-29T11:30:44.711Z,13.90
2022-12-29T11:31:50.920Z,13.88
2022-12-29T11:32:55.241Z,13.87
2022-12-29T11:33:57.486Z,13.83
2022-12-29T11:35:00.287Z,13.83
2022-12-29T11:36:07.496Z,13.84
2022-12-29T11:37:16.537Z,13.80
2022-12-29T11:38:26.541Z,13.79
2022-12-29T11:39:38.948Z,13.78
2022-12-29T11:40:41.607Z,13.76
2022-12-29T11:41:53.649Z,13.76
2022-12-29T11:43:05.695Z,13.74
2022-12-29T11:44:13.668Z,13.74
2022-12-29T11:45:23.976Z,13.72
2022-12-29T11:46:38.736Z,13.72
2022-12-29T11:47:46.260Z,13.71
2022-12-29T11:48:49.380Z,13.67
2022-12-29T11:49:54.986Z,13.67
2022-12-29T11:51:03.213Z,13.67
2022-12-29T11:52:05.785Z,13.66
2022-12-29T11:53:27.116Z,13.64
2022-12-29T11:54:34.930Z,13.65
2022-12-29T11:55:37.971Z,13.62
2022-12-29T11:56:44.857Z,13.62
2022-12-29T11:57:48.190Z,13.62
2022-12-29T11:58:51.816Z,13.61
2022-12-29T11:59:58.795Z,13.61
2022-12-29T12:01:26.883Z,13.61
2022-12-29T12:02:43.133Z,13.59
2022-12-29T12:03:57.401Z,13.58
2022-12-29T12:05:28.299Z,13.57
2022-12-29T12:06:33.722Z,13.54
2022-12-29T12:07:45.110Z,13.54
2022-12-29T12:08:57.240Z,13.52
2022-12-29T12:10:07.873Z,13.50
2022-12-29T12:11:18.551Z,13.49
2022-12-29T12:12:36.988Z,13.47
2022-12-29T12:13:53.478Z,13.46
2022-12-29T12:15:00.833Z,13.46
2022-12-29T12:16:23.826Z,13.45
2022-12-29T12:17:39.483Z,13.42
2022-12-29T12:18:51.050Z,13.42
2022-12-29T12:20:17.596Z,13.40
2022-12-29T12:21:26.323Z,13.39
2022-12-29T12:22:42.715Z,13.38
2022-12-29T12:23:55.276Z,13.39
2022-12-29T12:25:09.033Z,13.38
2022-12-29T12:26:14.083Z,13.38
2022-12-29T12:27:25.645Z,13.38
2022-12-29T12:28:57.168Z,13.38
2022-12-29T12:30:08.595Z,13.38
2022-12-29T12:31:24.525Z,13.36
2022-12-29T12:33:10.739Z,13.36
2022-12-29T12:34:23.871Z,13.38
2022-12-29T12:35:38.960Z,13.36
2022-12-29T12:36:48.939Z,13.37
2022-12-29T12:37:59.077Z,13.37
2022-12-29T12:39:13.523Z,13.38
2022-12-29T12:40:53.028Z,13.37
2022-12-29T12:42:44.209Z,13.36
2022-12-29T12:44:02.784Z,13.39
2022-12-29T12:45:39.025Z,13.37
2022-12-29T12:46:58.353Z,13.37
2022-12-29T12:48:33.710Z,13.37
2022-12-29T12:49:54.516Z,13.36
2022-12-29T12:51:33.864Z,13.36
2022-12-29T12:53:04.810Z,13.35
2022-12-29T12:54:23.974Z,13.33
2022-12-29T12:55:46.687Z,13.34
2022-12-29T12:57:15.719Z,13.32
2022-12-29T12:58:30.739Z,13.32
2022-12-29T12:59:52.069Z,13.31
2022-12-29T13:01:13.100Z,13.32
2022-12-29T13:02:49.542Z,13.31
2022-12-29T13:04:30.615Z,13.32
2022-12-29T13:05:43.934Z,13.33
2022-12-29T13:06:55.587Z,13.31
2022-12-29T13:08:16.144Z,13.30
2022-12-29T13:09:20.991Z,13.30
2022-12-29T13:10:44.120Z,13.30
2022-12-29T13:12:12.621Z,13.29
2022-12-29T13:13:36.888Z,13.29
2022-12-29T13:15:06.368Z,13.28
2022-12-29T13:16:14.543Z,13.28
2022-12-29T13:17:41.940Z,13.28
2022-12-29T13:19:12.018Z,13.28
2022-12-29T13:20:44.692Z,13.29
2022-12-29T13:22:00.016Z,13.29
2022-12-29T13:23:21.415Z,13.30
2022-12-29T13:24:42.636Z,13.28
2022-12-29T13:25:52.388Z,13.29
2022-12-29T13:27:12.940Z,13.30
2022-12-29T13:28:29.829Z,13.30
2022-12-29T13:29:42.058Z,13.29
2022-12-29T13:31:09.304Z,13.29
2022-12-29T13:32:44.450Z,13.29
2022-12-29T13:34:00.581Z,13.28
2022-12-29T13:35:17.640Z,13.27
2022-12-29T13:36:57.933Z,13.27
2022-12-29T13:38:12.179Z,13.26
2022-12-29T13:39:43.101Z,13.23
2022-12-29T13:40:51.710Z,13.23
2022-12-29T13:42:00.055Z,13.21
2022-12-29T13:43:04.084Z,13.20
2022-12-29T13:44:08.289Z,13.22
2022-12-29T13:45:20.534Z,13.20
2022-12-29T13:46:38.607Z,13.20
2022-12-29T13:48:02.530Z,13.17
2022-12-29T13:49:13.879Z,13.17
2022-12-29T13:50:23.077Z,13.16
2022-12-29T13:51:28.226Z,13.16
2022-12-29T13:52:49.272Z,13.14
2022-12-29T13:54:26.763Z,13.13
2022-12-29T13:55:36.032Z,13.14
2022-12-29T13:57:11.223Z,13.13
2022-12-29T13:58:29.154Z,13.12
2022-12-29T14:00:00.381Z,13.11
2022-12-29T14:01:20.067Z,13.10
2022-12-29T14:02:38.951Z,13.08
2022-12-29T14:03:50.030Z,13.08
2022-12-29T14:05:06.665Z,13.08
2022-12-29T14:06:21.160Z,13.08
2022-12-29T14:07:23.424Z,13.07
2022-12-29T14:08:25.702Z,13.06
2022-12-29T14:09:47.479Z,13.05
2022-12-29T14:10:52.290Z,13.03
2022-12-29T14:11:59.069Z,13.04
2022-12-29T14:13:06.101Z,13.04
2022-12-29T14:14:31.310Z,13.03
2022-12-29T14:15:34.606Z,13.01
2022-12-29T14:16:36.965Z,13.02
2022-12-29T14:17:41.551Z,13.01
2022-12-29T14:18:45.747Z,13.01
2022-12-29T14:19:53.834Z,13.01
2022-12-29T14:21:04.760Z,13.00
2022-12-29T14:22:07.185Z,13.00
2022-12-29T14:23:09.280Z,13.00
2022-12-29T14:24:41.648Z,12.98
2022-12-29T14:26:10.483Z,12.99
2022-12-29T14:27:13.179Z,12.99
2022-12-29T14:28:25.686Z,12.98
2022-12-29T14:29:30.847Z,12.97
2022-12-29T14:30:50.667Z,12.97
2022-12-29T14:31:53.877Z,12.96
2022-12-29T14:33:04.770Z,12.96
2022-12-29T14:34:06.910Z,12.95
2022-12-29T14:35:41.854Z,12.94
2022-12-29T14:36:59.478Z,12.94
2022-12-29T14:38:32.171Z,12.93
2022-12-29T14:39:44.159Z,12.92
2022-12-29T14:40:48.844Z,12.91
2022-12-29T14:42:01.573Z,12.91
2022-12-29T14:43:15.075Z,12.89
2022-12-29T14:44:20.517Z,12.88
2022-12-29T14:45:34.219Z,12.88
2022-12-29T14:46:45.340Z,12.88
2022-12-29T14:47:51.481Z,12.86
2022-12-29T14:48:59.447Z,12.86
2022-12-29T14:50:35.520Z,12.83
2022-12-29T14:51:39.403Z,12.82
2022-12-29T14:53:04.117Z,12.80
2022-12-29T14:54:43.329Z,12.77
2022-12-29T14:55:56.236Z,12.76
2022-12-29T14:57:03.975Z,12.75
2022-12-29T14:58:27.642Z,12.74
2022-12-29T14:59:33.255Z,12.71
2022-12-29T15:00:37.413Z,12.71
2022-12-29T15:01:46.318Z,12.69
2022-12-29T15:03:29.686Z,12.67
2022-12-29T15:04:35.767Z,12.67
2022-12-29T15:05:44.835Z,12.67
2022-12-29T15:06:50.191Z,12.64
2022-12-29T15:07:53.896Z,12.62
2022-12-29T15:09:05.789Z,12.61
2022-12-29T15:10:16.571Z,12.59
2022-12-29T15:11:25.567Z,12.59
2022-12-29T15:12:39.977Z,12.57